PDT,Max TemperatureF,Mean TemperatureF,Min TemperatureF,Max Dew PointF,MeanDew PointF,Min DewpointF,Max Humidity, Mean Humidity, Min Humidity, Max Sea Level PressureIn, Mean Sea Level PressureIn, Min Sea Level PressureIn, Max VisibilityMiles, Mean VisibilityMiles, Min VisibilityMiles, Max Wind SpeedMPH, Mean Wind SpeedMPH, Max Gust SpeedMPH,PrecipitationIn, CloudCover, Events, WindDirDegrees
2012-10-1,103,79,54,44,36,27,51,29,7,30.01,29.93,29.84,10,10,10,13,2,16,0.00,0,,205
2012-10-2,100,78,56,49,41,27,57,32,7,29.89,29.83,29.74,10,10,10,13,2,15,0.00,0,,177
2012-10-3,97,76,55,45,39,29,62,36,9,29.87,29.83,29.78,10,10,10,15,3,20,0.00,0,,344
2012-10-4,86,71,55,53,47,42,61,42,23,30.05,29.98,29.88,10,10,10,17,2,20,0.00,0,,160
2012-10-5,77,65,52,51,49,47,80,59,38,30.11,30.05,30.00,10,10,10,16,2,20,0.00,0,,165
2012-10-6,78,63,48,50,47,44,86,59,32,30.06,29.99,29.91,10,10,10,13,1,16,0.00,0,,174
2012-10-7,81,65,49,49,47,44,83,56,28,29.98,29.92,29.84,10,10,10,12,2,16,0.00,0,,166
2012-10-8,76,63,50,47,46,44,83,60,36,29.99,29.95,29.92,10,10,9,16,2,20,0.00,2,,197
2012-10-9,77,63,48,46,43,39,80,53,26,30.03,29.96,29.89,10,10,10,10,2,17,0.00,1,,123
2012-10-10,82,66,50,45,42,38,68,45,21,29.94,29.87,29.77,10,10,10,14,2,17,0.00,0,,124
2012-10-11,84,66,48,50,45,40,71,47,23,29.97,29.83,29.69,10,10,7,28,4,31,0.00,0,,198
2012-10-12,66,61,56,49,48,46,77,65,52,30.23,30.07,29.97,10,10,10,12,3,14,0.00,8,,177
2012-10-13,82,66,50,49,47,46,83,56,28,30.30,30.21,30.11,10,10,9,12,3,15,0.00,1,,76
2012-10-14,77,63,49,51,49,44,86,61,36,30.23,30.13,30.05,10,10,10,8,1,14,0.00,0,,155
2012-10-15,85,70,55,56,50,46,77,53,28,30.09,30.00,29.91,10,10,10,6,1,9,0.00,1,,181
2012-10-16,87,76,65,56,46,21,68,46,23,30.01,29.92,29.86,10,10,10,12,3,14,0.00,2,,36
2012-10-17,91,78,64,31,23,15,28,18,7,30.01,29.93,29.84,10,10,10,23,12,29,0.00,0,,349
2012-10-18,90,71,52,46,30,16,29,19,9,29.98,29.94,29.88,10,10,10,14,5,16,0.00,0,,45
2012-10-19,82,66,50,52,46,41,71,51,30,30.04,29.94,29.84,10,10,10,14,1,16,0.00,0,,160
2012-10-20,78,64,50,51,41,31,89,56,22,29.86,29.80,29.72,10,10,10,9,2,12,0.00,0,,302
2012-10-21,70,57,44,46,33,21,60,39,17,29.86,29.79,29.70,10,10,9,17,5,21,0.00,1,,180
2012-10-22,59,53,46,50,45,35,93,67,40,29.83,29.73,29.68,10,9,5,23,12,28,1.45,7,Rain-Thunderstorm,181
2012-10-23,59,52,44,45,41,36,89,66,43,30.02,29.95,29.84,10,10,10,15,7,18,T,7,Rain,189
2012-10-24,58,53,48,47,45,43,86,76,66,30.19,30.07,29.96,10,10,8,14,6,17,0.12,7,Rain,207
2012-10-25,65,55,45,46,39,32,93,62,30,30.32,30.28,30.19,10,10,7,16,5,21,T,2,,345
2012-10-26,75,58,41,49,40,32,82,55,27,30.28,30.17,30.07,10,10,10,10,2,14,0.00,1,,13
2012-10-27,82,66,49,51,47,45,83,57,30,30.10,30.04,29.96,10,10,10,10,3,13,0.00,0,,360
2012-10-28,78,64,50,52,49,46,86,59,32,30.02,29.98,29.93,10,10,10,8,1,9,0.00,0,,41
2012-10-29,78,64,49,54,51,46,89,64,39,30.12,30.05,30.01,10,9,2,6,1,8,0.00,0,,30
2012-10-30,74,62,49,53,51,46,93,70,46,30.06,29.99,29.92,10,10,10,7,0,9,0.00,0,,20
2012-10-31,57,53,48,54,52,46,93,87,80,29.96,29.93,29.89,10,8,2,10,4,14,0.52,6,Rain,203